Terminal Aerodrome Forecast
Issued by NWS

Home | Current Version | Previous Version | Text Only | Print | Product List | Glossary On
Versions: 1 2 3 4 5 6 7 8 9 10 11 12 13 14 15 16
000
FTUS43 KGRB 230500
TAFMTW
TAF
KMTW 230520Z 2306/2406 23015G20KT P6SM OVC015 WS015/24035KT
     FM231600 23015G24KT P6SM SCT018 OVC080 PROB30 2319/2322 5SM
      -RASN BR BKN018
     FM232200 23014G21KT 6SM -SN SCT012 OVC020
      TEMPO 2322/2402 4SM -FZDZSN BR BKN012
     FM240200 26009KT P6SM -FZDZSN BKN015 OVC050
     FM240500 28008KT P6SM OVC015=

USA.gov is the U.S. government's official web portal to all federal, state and local government web resources and services.